Morrill, Kansas
Current Conditions -  °F | °C
As of 4:53 PM on Thursday 18 Dec 2014 (Local Time) from KFNB Reporting Station
Overcast Overcast  
Wind Chill: 30°   Ceiling: 1200
Heat Index: 30°   Visibility: 9mi
Dew Point: 26°   Wind: 3mph
Humidity: 85%   Direction: 80°E
Pressure: 30.21"   Gusts: NA
Location:  39.93°N, 95.69°W
Report Text: KFNB 182253Z AUTO 08003KT 9SM OVC012 M01/M03 A3021 RMK AO2 SLP242 T10111033
Loading
Personal Weather Stations






























Interactive Weather Map New forecast layout! Learn more

10-Day Weather Forecast

Advertisements
Track Severe Weather on mobile